createdAt,value
2018-07-12T00:02:17.833Z,99.90
2018-07-12T00:04:45.157Z,99.90
2018-07-12T00:07:12.499Z,99.90
2018-07-12T00:09:39.953Z,99.90
2018-07-12T00:12:07.339Z,99.90
2018-07-12T00:14:34.814Z,99.90
2018-07-12T00:17:02.384Z,99.90
2018-07-12T00:19:29.703Z,99.90
2018-07-12T00:21:57.044Z,99.90
2018-07-12T00:24:24.358Z,99.90
2018-07-12T00:26:52.380Z,99.90
2018-07-12T00:29:19.832Z,99.90
2018-07-12T00:31:47.186Z,99.90
2018-07-12T00:34:14.497Z,99.90
2018-07-12T00:36:41.847Z,99.90
2018-07-12T00:39:09.212Z,99.90
2018-07-12T00:41:37.003Z,99.90
2018-07-12T00:44:04.481Z,99.90
2018-07-12T00:46:31.844Z,99.90
2018-07-12T00:48:59.177Z,99.90
2018-07-12T00:51:26.473Z,99.90
2018-07-12T00:53:53.787Z,99.90
2018-07-12T00:56:21.281Z,99.90
2018-07-12T00:58:48.693Z,99.90
2018-07-12T01:01:15.954Z,99.90
2018-07-12T01:03:43.298Z,99.90
2018-07-12T01:06:10.599Z,99.90
2018-07-12T01:08:38.242Z,99.90
2018-07-12T01:11:05.565Z,99.90
2018-07-12T01:13:32.861Z,99.90
2018-07-12T01:16:00.214Z,99.90
2018-07-12T01:18:27.505Z,99.90
2018-07-12T01:20:54.844Z,99.90
2018-07-12T01:23:22.326Z,99.90
2018-07-12T01:25:49.659Z,99.90
2018-07-12T01:28:16.968Z,99.90
2018-07-12T01:30:44.246Z,99.90
2018-07-12T01:33:11.663Z,99.90
2018-07-12T01:35:38.990Z,99.90
2018-07-12T01:38:06.751Z,99.90
2018-07-12T01:40:34.055Z,99.90
2018-07-12T01:43:01.370Z,99.90
2018-07-12T01:45:28.728Z,99.90
2018-07-12T01:47:56.073Z,99.90
2018-07-12T01:50:23.361Z,99.90
2018-07-12T01:52:50.638Z,99.90
2018-07-12T01:55:17.956Z,99.90
2018-07-12T01:57:45.309Z,99.90
2018-07-12T02:00:12.686Z,99.90
2018-07-12T02:02:39.951Z,99.90
2018-07-12T02:07:34.891Z,99.90
2018-07-12T02:10:02.247Z,99.90
2018-07-12T02:12:29.529Z,99.90
2018-07-12T02:14:56.879Z,99.90
2018-07-12T02:17:24.168Z,99.90
2018-07-12T02:19:51.503Z,99.90
2018-07-12T02:22:18.788Z,99.90
2018-07-12T02:24:46.070Z,99.90
2018-07-12T02:27:13.470Z,99.90
2018-07-12T02:29:40.905Z,99.90
2018-07-12T02:32:08.194Z,99.90
2018-07-12T02:34:35.516Z,99.90
2018-07-12T02:37:02.803Z,99.90
2018-07-12T02:39:30.134Z,99.90
2018-07-12T02:41:57.465Z,99.90
2018-07-12T02:44:25.040Z,99.90
2018-07-12T02:46:52.354Z,99.90
2018-07-12T02:49:19.630Z,99.90
2018-07-12T02:51:47.123Z,99.90
2018-07-12T02:54:14.482Z,99.90
2018-07-12T02:56:41.768Z,99.90
2018-07-12T02:59:09.104Z,99.90
2018-07-12T03:01:36.423Z,99.90
2018-07-12T03:04:03.818Z,99.90
2018-07-12T03:06:31.153Z,99.90
2018-07-12T03:08:58.448Z,99.90
2018-07-12T03:11:25.766Z,99.90
2018-07-12T03:13:53.045Z,99.90
2018-07-12T03:16:20.361Z,99.90
2018-07-12T03:21:15.365Z,99.90
2018-07-12T03:23:42.632Z,99.90
2018-07-12T03:26:09.927Z,99.90
2018-07-12T03:28:37.224Z,99.90
2018-07-12T03:31:04.526Z,99.90
2018-07-12T03:33:31.788Z,99.90
2018-07-12T03:35:59.555Z,99.90
2018-07-12T03:38:27.030Z,99.90
2018-07-12T03:40:54.436Z,99.90
2018-07-12T03:43:21.694Z,99.90
2018-07-12T03:45:48.991Z,99.90
2018-07-12T03:48:16.287Z,99.90
2018-07-12T03:50:43.551Z,99.90
2018-07-12T03:53:11.040Z,99.90
2018-07-12T03:55:38.339Z,99.90
2018-07-12T03:58:05.621Z,99.90
2018-07-12T04:00:33.011Z,99.90
2018-07-12T04:03:00.334Z,99.90
2018-07-12T04:05:27.643Z,99.90
2018-07-12T04:07:55.067Z,99.90
2018-07-12T04:10:28.710Z,99.90
2018-07-12T04:12:56.066Z,99.90
2018-07-12T04:15:23.393Z,99.90
2018-07-12T04:17:50.670Z,99.90
2018-07-12T04:20:18.118Z,99.90
2018-07-12T04:22:45.503Z,99.90
2018-07-12T04:27:40.507Z,99.90
2018-07-12T04:30:07.808Z,99.90
2018-07-12T04:32:35.258Z,99.90
2018-07-12T04:35:02.552Z,99.90
2018-07-12T04:37:29.825Z,99.90
2018-07-12T04:39:57.127Z,99.90
2018-07-12T04:42:24.410Z,99.90
2018-07-12T04:44:51.737Z,99.90
2018-07-12T04:47:19.078Z,99.90
2018-07-12T04:49:46.392Z,99.90
2018-07-12T04:52:13.783Z,99.90
2018-07-12T04:54:41.079Z,99.90
2018-07-12T04:57:08.528Z,99.90
2018-07-12T04:59:36.035Z,99.90
2018-07-12T05:02:03.391Z,99.90
2018-07-12T05:04:30.713Z,99.90
2018-07-12T05:06:58.066Z,99.90
2018-07-12T05:09:25.342Z,99.90
2018-07-12T05:11:52.725Z,99.90
2018-07-12T05:14:20.001Z,99.90
2018-07-12T05:16:47.360Z,99.90
2018-07-12T05:19:14.692Z,99.90
2018-07-12T05:21:41.982Z,99.90
2018-07-12T05:24:09.256Z,99.90
2018-07-12T05:26:36.595Z,99.90
2018-07-12T05:29:03.867Z,99.90
2018-07-12T05:31:31.205Z,99.90
2018-07-12T05:33:58.492Z,99.90
2018-07-12T05:37:02.945Z,99.90
2018-07-12T05:39:31.421Z,99.90
2018-07-12T05:41:59.969Z,99.90
2018-07-12T05:44:28.265Z,99.90
2018-07-12T05:46:56.750Z,99.90
2018-07-12T05:49:25.206Z,99.90
2018-07-12T05:51:53.664Z,99.90
2018-07-12T05:54:22.119Z,99.90
2018-07-12T05:56:50.444Z,99.90
2018-07-12T05:59:18.923Z,99.90
2018-07-12T06:01:58.772Z,99.90
2018-07-12T06:04:27.177Z,99.90
2018-07-12T06:06:55.753Z,99.90
2018-07-12T06:09:24.169Z,99.90
2018-07-12T06:11:52.571Z,99.90
2018-07-12T06:14:20.987Z,99.90
2018-07-12T06:16:49.466Z,99.90
2018-07-12T06:19:18.094Z,99.90
2018-07-12T06:21:46.486Z,99.90
2018-07-12T06:24:15.111Z,99.90
2018-07-12T06:26:43.552Z,99.90
2018-07-12T06:29:12.031Z,99.90
2018-07-12T06:31:40.579Z,99.90
2018-07-12T06:34:08.939Z,99.90
2018-07-12T06:36:37.380Z,99.90
2018-07-12T06:39:07.770Z,99.90
2018-07-12T06:41:36.203Z,99.90
2018-07-12T06:44:04.654Z,99.80
2018-07-12T06:46:33.424Z,99.90
2018-07-12T06:49:01.894Z,99.90
2018-07-12T06:51:30.429Z,99.90
2018-07-12T06:53:58.954Z,99.60
2018-07-12T06:56:27.430Z,97.60
2018-07-12T06:58:55.874Z,97.30
2018-07-12T07:01:24.378Z,96.30
2018-07-12T07:03:52.941Z,95.60
2018-07-12T07:06:21.301Z,95.20
2018-07-12T07:08:49.698Z,94.80
2018-07-12T07:11:18.132Z,94.00
2018-07-12T07:13:46.556Z,94.40
2018-07-12T07:16:14.980Z,95.70
2018-07-12T07:18:43.399Z,94.20
2018-07-12T07:21:11.897Z,94.10
2018-07-12T07:23:40.270Z,93.70
2018-07-12T07:26:08.740Z,92.70
2018-07-12T07:28:37.088Z,92.20
2018-07-12T07:31:05.734Z,91.70
2018-07-12T07:33:34.186Z,91.80
2018-07-12T07:36:02.590Z,91.20
2018-07-12T07:38:31.085Z,91.60
2018-07-12T07:40:59.483Z,91.60
2018-07-12T07:43:27.929Z,90.80
2018-07-12T07:45:56.425Z,90.80
2018-07-12T07:48:24.862Z,90.60
2018-07-12T07:50:53.216Z,89.40
2018-07-12T07:53:21.627Z,88.40
2018-07-12T07:55:50.434Z,86.30
2018-07-12T07:58:18.895Z,86.70
2018-07-12T08:00:47.404Z,85.70
2018-07-12T08:03:15.949Z,85.40
2018-07-12T08:05:44.373Z,84.70
2018-07-12T08:08:12.807Z,86.50
2018-07-12T08:10:41.236Z,85.00
2018-07-12T08:13:09.576Z,83.40
2018-07-12T08:15:38.044Z,85.30
2018-07-12T08:18:06.738Z,81.50
2018-07-12T08:20:35.166Z,81.40
2018-07-12T08:23:03.856Z,81.70
2018-07-12T08:25:32.306Z,82.20
2018-07-12T08:28:11.901Z,79.20
2018-07-12T08:30:40.269Z,79.10
2018-07-12T08:33:08.638Z,80.70
2018-07-12T08:35:37.103Z,79.60
2018-07-12T08:38:05.655Z,80.30
2018-07-12T08:40:33.997Z,78.30
2018-07-12T08:43:02.330Z,77.90
2018-07-12T08:45:30.621Z,76.90
2018-07-12T08:47:58.955Z,76.70
2018-07-12T08:50:27.676Z,79.20
2018-07-12T08:52:56.052Z,78.80
2018-07-12T08:55:24.404Z,77.70
2018-07-12T08:57:52.759Z,76.50
2018-07-12T09:00:21.161Z,77.70
2018-07-12T09:02:49.629Z,76.80
2018-07-12T09:05:18.048Z,75.50
2018-07-12T09:07:46.505Z,74.60
2018-07-12T09:10:15.327Z,72.60
2018-07-12T09:12:43.860Z,73.10
2018-07-12T09:15:12.381Z,71.20
2018-07-12T09:17:40.767Z,72.10
2018-07-12T09:20:09.127Z,72.20
2018-07-12T09:22:37.495Z,74.00
2018-07-12T09:25:06.032Z,72.60
2018-07-12T09:27:34.437Z,72.00
2018-07-12T09:30:02.743Z,73.70
2018-07-12T09:32:31.240Z,74.20
2018-07-12T09:34:59.691Z,76.20
2018-07-12T09:37:28.077Z,75.00
2018-07-12T09:39:56.457Z,72.90
2018-07-12T09:42:24.874Z,74.60
2018-07-12T09:44:53.212Z,76.20
2018-07-12T09:47:21.739Z,74.10
2018-07-12T09:49:50.317Z,73.10
2018-07-12T09:52:24.292Z,75.30
2018-07-12T09:54:52.617Z,76.00
2018-07-12T09:57:32.307Z,74.30
2018-07-12T10:00:00.820Z,73.60
2018-07-12T10:02:34.493Z,74.80
2018-07-12T10:05:02.971Z,76.30
2018-07-12T10:07:36.786Z,74.50
2018-07-12T10:10:05.247Z,73.40
2018-07-12T10:13:36.712Z,75.60
2018-07-12T10:16:09.442Z,74.50
2018-07-12T10:18:37.881Z,76.60
2018-07-12T10:21:06.475Z,75.10
2018-07-12T10:26:03.329Z,75.60
2018-07-12T10:28:31.762Z,76.50
2018-07-12T10:31:00.135Z,74.80
2018-07-12T10:33:28.585Z,74.90
2018-07-12T10:35:57.211Z,72.30
2018-07-12T10:38:25.641Z,71.90
2018-07-12T10:40:54.014Z,73.20
2018-07-12T10:43:22.612Z,71.90
2018-07-12T10:45:50.981Z,72.30
2018-07-12T10:50:47.678Z,75.60
2018-07-12T10:53:16.021Z,75.10
2018-07-12T10:55:44.467Z,75.80
2018-07-12T10:58:12.855Z,72.10
2018-07-12T11:00:41.772Z,70.20
2018-07-12T11:03:10.182Z,73.70
2018-07-12T11:05:38.672Z,74.40
2018-07-12T11:08:07.151Z,74.60
2018-07-12T11:10:35.672Z,73.40
2018-07-12T11:13:10.842Z,73.50
2018-07-12T11:15:39.565Z,73.70
2018-07-12T11:18:08.040Z,70.80
2018-07-12T11:20:36.536Z,72.00
2018-07-12T11:23:05.048Z,72.50
2018-07-12T11:25:33.682Z,71.50
2018-07-12T11:28:03.189Z,74.10
2018-07-12T11:30:32.711Z,72.00
2018-07-12T11:33:05.761Z,73.00
2018-07-12T11:35:34.367Z,71.80
2018-07-12T11:38:02.805Z,70.50
2018-07-12T11:40:31.284Z,69.10
2018-07-12T11:42:59.660Z,71.60
2018-07-12T11:45:28.118Z,70.50
2018-07-12T11:47:56.545Z,70.10
2018-07-12T11:50:25.009Z,70.80
2018-07-12T11:52:53.479Z,69.70
2018-07-12T11:55:21.855Z,69.80
2018-07-12T11:57:50.321Z,67.40
2018-07-12T12:00:18.744Z,68.20
2018-07-12T12:02:47.106Z,70.20
2018-07-12T12:05:15.601Z,71.30
2018-07-12T12:07:44.297Z,73.10
2018-07-12T12:10:12.725Z,71.00
2018-07-12T12:12:41.147Z,69.20
2018-07-12T12:15:09.512Z,70.90
2018-07-12T12:17:38.026Z,68.90
2018-07-12T12:20:06.344Z,67.90
2018-07-12T12:22:34.761Z,67.20
2018-07-12T12:25:03.217Z,70.20
2018-07-12T12:27:31.638Z,69.30
2018-07-12T12:29:59.995Z,65.20
2018-07-12T12:32:28.476Z,65.00
2018-07-12T12:34:56.840Z,63.50
2018-07-12T12:37:25.315Z,64.60
2018-07-12T12:39:53.760Z,62.70
2018-07-12T12:42:22.186Z,65.10
2018-07-12T12:44:50.614Z,62.20
2018-07-12T12:47:19.009Z,61.10
2018-07-12T12:49:47.449Z,64.30
2018-07-12T12:52:16.102Z,58.80
2018-07-12T12:54:44.499Z,58.80
2018-07-12T12:57:12.800Z,60.30
2018-07-12T12:59:41.217Z,59.60
2018-07-12T13:02:09.689Z,59.80
2018-07-12T13:04:38.899Z,57.00
2018-07-12T13:07:07.281Z,58.00
2018-07-12T13:09:35.745Z,57.10
2018-07-12T13:12:04.234Z,56.90
2018-07-12T13:14:32.542Z,56.50
2018-07-12T13:17:00.832Z,59.10
2018-07-12T13:19:29.200Z,57.60
2018-07-12T13:21:57.588Z,58.70
2018-07-12T13:24:26.276Z,58.30
2018-07-12T13:26:54.626Z,56.70
2018-07-12T13:29:23.094Z,57.40
2018-07-12T13:31:51.622Z,57.50
2018-07-12T13:34:20.340Z,57.30
2018-07-12T13:36:48.775Z,57.40
2018-07-12T13:39:17.103Z,57.70
2018-07-12T13:41:45.483Z,58.00
2018-07-12T13:44:25.290Z,56.60
2018-07-12T13:46:54.706Z,55.30
2018-07-12T13:49:23.134Z,54.60
2018-07-12T13:51:52.354Z,55.00
2018-07-12T13:54:21.088Z,54.00
2018-07-12T13:56:50.053Z,52.50
2018-07-12T13:59:18.489Z,54.10
2018-07-12T14:01:46.866Z,54.20
2018-07-12T14:04:15.370Z,53.10
2018-07-12T14:06:43.738Z,53.00
2018-07-12T14:09:13.316Z,52.90
2018-07-12T14:11:41.831Z,54.90
2018-07-12T14:14:10.447Z,53.80
2018-07-12T14:16:38.792Z,53.30
2018-07-12T14:19:07.235Z,54.40
2018-07-12T14:21:35.637Z,52.30
2018-07-12T14:24:04.268Z,53.00
2018-07-12T14:26:32.784Z,54.60
2018-07-12T14:29:01.219Z,55.70
2018-07-12T14:31:29.627Z,55.90
2018-07-12T14:33:58.105Z,55.00
2018-07-12T14:36:26.461Z,54.30
2018-07-12T14:38:54.805Z,54.20
2018-07-12T14:41:23.264Z,54.50
2018-07-12T14:43:51.596Z,55.10
2018-07-12T14:46:20.908Z,55.10
2018-07-12T14:48:49.462Z,54.70
2018-07-12T14:51:17.881Z,55.10
2018-07-12T14:53:46.362Z,55.60
2018-07-12T14:56:14.733Z,55.30
2018-07-12T14:58:43.142Z,54.90
2018-07-12T15:01:11.511Z,53.90
2018-07-12T15:03:40.073Z,53.20
2018-07-12T15:06:08.449Z,53.00
2018-07-12T15:08:36.837Z,53.70
2018-07-12T15:11:05.167Z,53.10
2018-07-12T15:13:33.896Z,53.50
2018-07-12T15:16:02.355Z,52.30
2018-07-12T15:18:30.824Z,54.50
2018-07-12T15:20:59.258Z,54.00
2018-07-12T15:23:27.621Z,53.30
2018-07-12T15:25:56.314Z,51.50
2018-07-12T15:28:24.766Z,49.80
2018-07-12T15:30:53.113Z,51.80
2018-07-12T15:33:21.522Z,49.30
2018-07-12T15:35:50.065Z,48.60
2018-07-12T15:38:18.590Z,50.00
2018-07-12T15:40:47.025Z,50.90
2018-07-12T15:43:15.316Z,49.80
2018-07-12T15:45:43.692Z,51.30
2018-07-12T15:48:12.101Z,52.40
2018-07-12T15:50:40.624Z,52.40
2018-07-12T15:53:08.988Z,50.40
2018-07-12T15:55:37.255Z,50.10
2018-07-12T15:58:05.601Z,51.10
2018-07-12T16:00:33.959Z,51.00
2018-07-12T16:03:02.286Z,53.90
2018-07-12T16:05:30.653Z,51.10
2018-07-12T16:07:58.993Z,51.90
2018-07-12T16:10:27.376Z,52.80
2018-07-12T16:12:55.822Z,51.50
2018-07-12T16:15:24.150Z,52.80
2018-07-12T16:17:52.712Z,52.20
2018-07-12T16:20:21.283Z,51.70
2018-07-12T16:22:49.773Z,51.10
2018-07-12T16:25:18.205Z,51.80
2018-07-12T16:27:46.771Z,55.40
2018-07-12T16:30:15.209Z,52.90
2018-07-12T16:32:43.624Z,52.90
2018-07-12T16:35:11.984Z,52.60
2018-07-12T16:37:40.613Z,59.60
2018-07-12T16:40:09.027Z,58.70
2018-07-12T16:42:37.512Z,57.80
2018-07-12T16:45:06.581Z,54.60
2018-07-12T16:47:34.998Z,57.60
2018-07-12T16:50:03.839Z,61.20
2018-07-12T16:52:32.952Z,60.90
2018-07-12T16:55:01.382Z,57.10
2018-07-12T16:59:57.894Z,62.40
2018-07-12T17:02:26.287Z,58.40
2018-07-12T17:04:54.712Z,64.70
2018-07-12T17:07:23.044Z,66.10
2018-07-12T17:09:51.398Z,60.20
2018-07-12T17:12:19.728Z,60.60
2018-07-12T17:14:48.058Z,66.00
2018-07-12T17:17:16.661Z,65.90
2018-07-12T17:19:45.150Z,68.20
2018-07-12T17:22:13.393Z,67.90
2018-07-12T17:24:41.758Z,68.00
2018-07-12T17:27:10.149Z,70.10
2018-07-12T17:29:40.453Z,69.60
2018-07-12T17:32:09.043Z,70.70
2018-07-12T17:34:37.403Z,71.30
2018-07-12T17:37:06.039Z,71.90
2018-07-12T17:39:34.616Z,71.10
2018-07-12T17:42:02.934Z,73.00
2018-07-12T17:44:31.305Z,67.50
2018-07-12T17:46:59.893Z,72.30
2018-07-12T17:49:28.447Z,73.70
2018-07-12T17:51:56.971Z,74.50
2018-07-12T17:54:25.352Z,73.40
2018-07-12T17:56:53.853Z,73.60
2018-07-12T17:59:22.270Z,72.90
2018-07-12T18:01:50.686Z,72.70
2018-07-12T18:04:19.070Z,73.00
2018-07-12T18:06:47.482Z,72.80
2018-07-12T18:09:15.890Z,74.50
2018-07-12T18:11:44.270Z,73.50
2018-07-12T18:14:12.707Z,73.60
2018-07-12T18:16:41.065Z,72.20
2018-07-12T18:19:09.480Z,73.80
2018-07-12T18:21:38.022Z,70.90
2018-07-12T18:24:06.559Z,73.70
2018-07-12T18:26:34.988Z,75.20
2018-07-12T18:29:03.496Z,75.80
2018-07-12T18:31:31.815Z,74.10
2018-07-12T18:34:00.229Z,73.90
2018-07-12T18:36:28.572Z,75.40
2018-07-12T18:38:57.078Z,75.70
2018-07-12T18:41:25.407Z,76.30
2018-07-12T18:43:53.771Z,77.70
2018-07-12T18:46:22.254Z,79.20
2018-07-12T18:48:50.570Z,79.20
2018-07-12T18:51:19.256Z,80.40
2018-07-12T18:53:47.589Z,80.80
2018-07-12T18:56:16.068Z,81.00
2018-07-12T18:58:44.485Z,81.20
2018-07-12T19:01:12.873Z,81.00
2018-07-12T19:03:41.367Z,81.90
2018-07-12T19:06:09.788Z,83.90
2018-07-12T19:08:38.187Z,83.70
2018-07-12T19:11:06.577Z,83.70
2018-07-12T19:13:35.045Z,84.50
2018-07-12T19:16:03.402Z,83.90
2018-07-12T19:18:31.778Z,84.80
2018-07-12T19:21:00.163Z,86.10
2018-07-12T19:23:28.636Z,85.80
2018-07-12T19:25:57.226Z,86.20
2018-07-12T19:28:25.636Z,87.40
2018-07-12T19:30:54.000Z,88.00
2018-07-12T19:33:22.403Z,88.30
2018-07-12T19:35:50.843Z,88.60
2018-07-12T19:38:19.298Z,89.30
2018-07-12T19:40:47.596Z,89.90
2018-07-12T19:43:16.120Z,90.10
2018-07-12T19:45:44.636Z,90.30
2018-07-12T19:48:13.133Z,90.60
2018-07-12T19:50:41.743Z,90.80
2018-07-12T19:53:10.382Z,91.00
2018-07-12T19:55:38.890Z,91.30
2018-07-12T19:58:07.247Z,91.40
2018-07-12T20:00:35.847Z,91.60
2018-07-12T20:03:04.511Z,91.80
2018-07-12T20:05:33.193Z,91.80
2018-07-12T20:08:01.638Z,92.10
2018-07-12T20:10:30.129Z,92.20
2018-07-12T20:12:58.457Z,92.30
2018-07-12T20:15:26.878Z,92.40
2018-07-12T20:17:55.339Z,92.40
2018-07-12T20:22:52.422Z,92.80
2018-07-12T20:25:20.928Z,93.10
2018-07-12T20:27:49.312Z,93.20
2018-07-12T20:30:17.762Z,93.50
2018-07-12T20:32:46.231Z,93.50
2018-07-12T20:35:14.787Z,93.70
2018-07-12T20:37:43.156Z,94.00
2018-07-12T20:40:11.939Z,94.30
2018-07-12T20:42:40.353Z,94.60
2018-07-12T20:45:08.706Z,94.40
2018-07-12T20:47:37.152Z,94.60
2018-07-12T20:50:05.671Z,94.70
2018-07-12T20:52:34.166Z,94.90
2018-07-12T20:55:02.528Z,95.50
2018-07-12T20:57:30.978Z,95.30
2018-07-12T20:59:59.660Z,95.70
2018-07-12T21:02:27.955Z,95.70
2018-07-12T21:05:03.027Z,95.90
2018-07-12T21:07:31.469Z,96.20
2018-07-12T21:10:00.559Z,96.40
2018-07-12T21:12:28.923Z,96.60
2018-07-12T21:14:57.270Z,96.70
2018-07-12T21:17:25.711Z,96.70
2018-07-12T21:19:54.271Z,96.90
2018-07-12T21:22:22.660Z,97.10
2018-07-12T21:24:51.188Z,97.10
2018-07-12T21:27:19.560Z,97.20
2018-07-12T21:29:48.136Z,97.20
2018-07-12T21:32:16.615Z,97.30
2018-07-12T21:34:45.138Z,97.50
2018-07-12T21:37:13.573Z,97.40
2018-07-12T21:39:41.946Z,97.80
2018-07-12T21:42:10.492Z,98.20
2018-07-12T21:44:43.464Z,98.80
2018-07-12T21:47:11.792Z,98.60
2018-07-12T21:49:40.125Z,98.70
2018-07-12T21:52:08.594Z,98.70
2018-07-12T21:54:36.940Z,98.70
2018-07-12T21:57:05.613Z,98.80
2018-07-12T21:59:34.529Z,98.90
2018-07-12T22:02:03.190Z,99.30
2018-07-12T22:04:31.702Z,99.30
2018-07-12T22:07:12.165Z,99.20
2018-07-12T22:09:40.603Z,99.50
2018-07-12T22:12:08.982Z,99.50
2018-07-12T22:14:37.496Z,99.40
2018-07-12T22:17:05.953Z,99.50
2018-07-12T22:19:34.425Z,99.50
2018-07-12T22:22:02.822Z,99.60
2018-07-12T22:24:31.157Z,99.80
2018-07-12T22:26:59.666Z,99.70
2018-07-12T22:29:28.160Z,99.80
2018-07-12T22:31:56.563Z,99.70
2018-07-12T22:34:25.136Z,99.80
2018-07-12T22:36:53.721Z,99.90
2018-07-12T22:39:22.313Z,99.90
2018-07-12T22:41:53.219Z,99.90
2018-07-12T22:44:21.619Z,99.90
2018-07-12T22:46:50.225Z,99.90
2018-07-12T22:49:18.957Z,99.90
2018-07-12T22:51:47.388Z,99.90
2018-07-12T22:54:16.032Z,99.90
2018-07-12T22:56:44.523Z,99.90
2018-07-12T22:59:12.875Z,99.90
2018-07-12T23:01:41.402Z,99.90
2018-07-12T23:04:09.854Z,99.90
2018-07-12T23:06:38.279Z,99.90
2018-07-12T23:09:06.798Z,99.90
2018-07-12T23:11:35.213Z,99.90
2018-07-12T23:14:03.748Z,99.90
2018-07-12T23:19:00.318Z,99.90
2018-07-12T23:21:29.028Z,99.90
2018-07-12T23:23:57.517Z,99.90
2018-07-12T23:26:26.004Z,99.90
2018-07-12T23:28:55.642Z,99.90
2018-07-12T23:31:24.089Z,99.90
2018-07-12T23:33:52.575Z,99.90
2018-07-12T23:36:23.358Z,99.90
2018-07-12T23:38:53.745Z,99.90
2018-07-12T23:41:22.388Z,99.90
2018-07-12T23:43:50.946Z,99.90
2018-07-12T23:46:19.359Z,99.90
2018-07-12T23:48:47.674Z,99.90
2018-07-12T23:51:16.084Z,99.90
2018-07-12T23:53:44.438Z,99.90
2018-07-12T23:56:12.969Z,99.90
2018-07-12T23:58:41.267Z,99.90
